Results



WK Veteranen en Snelle Tour (23/1)

Criterium Heren A en B, Dames, Criterium Snelle Toer, Veteranen (24/1)

1e grote AET Toertocht (25/1)

Aart Koopmans Memorial (26/1)

Criterium Heren A en B, Dames (28/1)

2e grote AET Toertocht (29/1)

Essent Open Nederlandse Kampioenschappen (30/1)

Wedstrijd voor Heren A en B, Dames (31/1)

3e grote AET Toertocht (1/2)

Essent Alternatieve Elfstedentocht (2/2)







Wedstrijd voor Heren A en B, Dames (31/1)

Afstand Categorie
Zoek Veld Zoek op
[ Ververs ]
Stand # Naam Plaats/Land Ronden Tijd km/h km
1 010 Renť Ruitenberg Safan () 30 0:43:15.4 41.61 30.00
2 108 Bart de Vries Haak-Bional-Jovetra () 30 0:43:15.6 41.61 30.00
3 007 Bob de Vries BAM Schaatsteam () 30 0:43:15.7 41.61 30.00
4 035 Roy Boeve Beelen Sloopwerken () 30 0:43:15.8 41.61 30.00
5 071 Bart Hakkenberg InterCarParts/Vlasman () 30 0:43:16.3 41.60 30.00
6 110 Engbert de Vegt Haak-Bional-Jovetra () 30 0:43:18.4 41.57 30.00
7 037 Arjan Mombarg Nefit HR Ketels () 30 0:43:20.9 41.53 30.00
8 047 Rutger ter Laak PGM Bakker Vastgoed () 30 0:43:20.9 41.53 30.00
9 026 Casper Helling Safan () 30 0:43:21.0 41.52 30.00
10 111 Durk Fabriek Haak-Bional-Jovetra () 30 0:43:21.3 41.52 30.00
11 087 Jochem Janssen Foekens () 30 0:43:21.3 41.52 30.00
12 092 Bernhard Bouma Wessels-BMC-Mijnten () 30 0:43:21.4 41.52 30.00
13 060 Frans de Ronde Foekens () 30 0:43:21.4 41.52 30.00
14 005 Henk Angenent Team TNT Express () 30 0:43:21.8 41.51 30.00
15 086 Charley Landman Foekens () 30 0:43:21.8 41.51 30.00
16 042 Henri Ruitenberg Safan () 30 0:43:22.2 41.50 30.00
17 105 Rick van Leersum Goesting.nl () 30 0:43:22.2 41.50 30.00
18 097 Jochem Uithoven Bouw Consulting Twente () 30 0:43:26.0 41.44 30.00
19 103 Richard Sijm Viks Parket () 30 0:43:26.9 41.43 30.00
20 B09 Erwin Mesu Kaasboerderij Schellach () 30 0:43:27.7 41.42 30.00
21 B01 Johan Bakker Groenehartsport.nl () 30 0:43:27.7 41.42 30.00
22 013 Andres Landman Foekens () 30 0:43:28.2 41.41 30.00
23 B63 Roelof Koops Schaatsploeg Noord-Nederland.nl () 30 0:43:28.3 41.41 30.00
24 B20 Gerrit de Zwaan Mijnten () 30 0:43:28.4 41.41 30.00
25 109 Gerrit Albada Haak-Bional-Jovetra () 30 0:43:28.4 41.41 30.00
26 036 Eelco Bakermans Time Out Sport/Vrieling () 30 0:43:29.0 41.40 30.00
27 B70 Bart van der Valk () 30 0:43:29.6 41.39 30.00
28 102 Eric Bisschops Viks Parket () 30 0:43:30.8 41.37 30.00
29 093 Hans van de Wetering Wessels-BMC-Mijnten () 30 0:43:31.3 41.36 30.00
30 034 Kurt Wubben Team TNT Express () 30 0:43:35.8 41.29 30.00
31 B59 Wilbert Zielman () 30 0:43:43.7 41.16 30.00
32 B43 Theo Trul Schaatsploeg Noord-Nederland.nl () 30 0:43:44.3 41.16 30.00
33 B24 John van Dijk Biesterveld Diamantairs () 30 0:43:45.0 41.14 30.00
34 B83 Johan Elstgeest Groenehartsport.nl () 30 0:43:49.3 41.08 30.00
35 B93 Remco Huisman Thermo.com () 30 0:44:05.8 40.82 30.00
36 041 Pieter Jan van Eck Safan () 28 0:46:41.3 35.98 28.00
37 096 Melvin van Zanten Bouw Consulting Twente () 27 0:39:26.9 41.07 27.00
38 B61 Wessel van Loon Schaatsploeg Noord-Nederland.nl () 26 0:37:44.3 41.34 26.00
39 D87 Elma de Vries DSB Bank () 25 0:39:41.5 37.79 25.00
40 D05 DaniŽlle Bekkering Frisia Financieringen () 25 0:39:42.2 37.78 25.00
41 D76 Mariska Huisman Viks Parket () 25 0:39:42.4 37.78 25.00
42 D41 Maria Sterk DSB Bank () 25 0:39:42.8 37.77 25.00
43 D10 Jolanda Langeland Steenbergen Fietsen () 25 0:39:43.1 37.77 25.00
44 D53 Kimberly Muusse Foekens () 25 0:39:43.7 37.76 25.00
45 D24 Erna Kijk In de Vegte BTN de Haas/ Landjuweel () 25 0:39:44.7 37.74 25.00
46 D13 Carla Zielman Hoolwerf Heiwerken () 25 0:39:45.9 37.72 25.00
47 D28 Liesbeth Hijlkema Cakyline () 25 0:39:46.3 37.72 25.00
48 D80 Jane Douma Caravell () 25 0:39:47.1 37.70 25.00
49 D38 Iris Prinsen Van der Wiel () 25 0:39:47.4 37.70 25.00
50 D85 Heleen van Vliet () 25 0:39:47.5 37.70 25.00
51 D08 Hilde Goovaerts Hoolwerf Heiwerken () 25 0:39:48.5 37.68 25.00
52 D84 Lillian van Haaster Up to you too () 25 0:39:49.1 37.67 25.00
53 D62 Sabine van der Wiel Groenehartsport.nl () 25 0:39:49.2 37.67 25.00
54 D27 Jaike de Graaf ÷stersund () 25 0:39:49.3 37.67 25.00
55 D25 Marjolijn Hulzebosch Van der Wiel () 25 0:39:49.3 37.67 25.00
56 D34 Karin Bakker Viks Parket () 25 0:39:49.4 37.67 25.00
57 D89 Angela Hemeltjen Free-Wheel () 25 0:39:49.5 37.66 25.00
58 D44 Yvonne Spigt Foekens () 25 0:39:49.7 37.66 25.00
59 D01 Birgit Witte Foekens () 25 0:39:49.8 37.66 25.00
60 D49 Andrea Sikkema Van der Wiel () 25 0:39:49.9 37.66 25.00
61 D30 Marinda van Bergeijk () 25 0:39:49.9 37.66 25.00
62 D03 Mischa Top BTN de Haas/ Landjuweel () 25 0:39:50.1 37.66 25.00
63 D20 Nynke Bouma-Huitema Pro Horeca () 25 0:39:50.1 37.66 25.00
64 D06 Marjon Spijkerman Hoolwerf Heiwerken () 25 0:39:50.2 37.65 25.00
65 D33 Hanneke Tenniglo Aavas Groep () 25 0:39:50.6 37.65 25.00
66 D73 Hilde van Slochteren VPZ () 25 0:39:52.9 37.61 25.00
67 D04 Annemargreet Kramer Pro Horeca () 25 0:39:57.7 37.54 25.00
68 D69 Ilse Hoogland Caravell () 25 0:39:59.5 37.51 25.00
69 D60 Annelies Passchier Pro Horeca () 25 0:40:36.5 36.94 25.00
70 B21 Dennis Spijkerboer () 22 0:34:04.5 38.74 22.00
71 D47 Anniek ter Haar Time Out Sport/Vrieling () 22 0:36:55.8 35.74 22.00
72 B87 Andre Klopmaker () 20 0:31:32.0 38.05 20.00
73 726 Mike van den Berg Borne (N) 20 0:31:37.8 37.94 20.00
74 6235 Rinke Dejong (N) 20 0:31:38.5 37.93 20.00
75 147 Aart van Dalen Andel (N) 20 0:31:38.5 37.92 20.00
76 128 Rene van der Meulen Kampen (N) 20 0:31:38.6 37.92 20.00
77 140 Jeroen Verlaan Limmen (N) 20 0:31:38.9 37.92 20.00
78 733 Jan ronald Wigarda Wolvega (N) 20 0:31:39.1 37.91 20.00
79 727 Tom Versteeg Soest (N) 20 0:31:39.3 37.91 20.00
80 146 Wim Oldenberg (N) 20 0:31:39.4 37.91 20.00
81 734 Wil van der Neut Oudewater (N) 20 0:31:39.4 37.91 20.00
82 739 Hans Pater Waarland (N) 20 0:31:39.6 37.90 20.00
83 303 Henry Pardijs Vierakker (N) 20 0:31:39.7 37.90 20.00
84 139 Kees Cijsouw Oostburg (N) 20 0:31:39.8 37.90 20.00
85 141 Jan Grauss Brakel (N) 20 0:31:40.1 37.89 20.00
86 738 Nico van Bergeijk Lelystad (N) 20 0:31:40.3 37.89 20.00
87 145 Arie van Veldhoven Haaften (N) 20 0:31:40.4 37.89 20.00
88 742 Daan Hanraads Zijdewind (N) 20 0:31:40.7 37.88 20.00
89 134 Gerrit van Vilsteren (N) 20 0:31:40.7 37.88 20.00
90 749 Engbert van der Woude De wijk (N) 20 0:31:41.3 37.87 20.00
91 501 Herman Pouwels Steenwijk (N) 20 0:31:41.4 37.87 20.00
92 532 Douwe Brouwer Ferwert (N) 20 0:31:41.5 37.87 20.00
93 748 Jan van 't Zand Zuidwolde (N) 20 0:31:41.5 37.87 20.00
94 507 Jean-luc Ostyn Kortrijk belgie (B) 20 0:31:41.7 37.86 20.00
95 144 Dick de Haan Akersloot (N) 20 0:31:41.8 37.86 20.00
96 725 Karuud Pots Borne (N) 20 0:31:42.6 37.84 20.00
97 550 Jozef de Weirt Deinze belgie (B) 20 0:31:42.8 37.84 20.00
98 731 Remco Hin Nieuw vennep (N) 20 0:31:43.1 37.83 20.00
99 756 Jan Oudhuis Alkmaar (N) 20 0:31:43.2 37.83 20.00
100 310 Bruno Plantinga Avenhorn (N) 20 0:31:43.7 37.82 20.00
[ Volgende ]
472 Gevonden resultaten - Pagina's: 1 | 2 | 3 | 4 | 5